Time;durP1;ratioP1;P1;durP2;ratioP2;P2;SDS_P1;SDS_P2;PMS_P1;PMS_P2;Temp;Humidity;BMP_temperature;BMP_pressure;BME280_temperature;BME280_humidity;BME280_pressure;Samples;Min_cycle;Max_cycle;Signal;HPM_P1;HPM_P2
2023/04/09 00:00:21;;;;;;;48.20;25.75;;;;;;;;;;5052110;28;20044;-81
2023/04/09 00:02:47;;;;;;;49.53;27.73;;;;;;;;;;5042936;28;20505;-81
2023/04/09 00:05:13;;;;;;;51.13;29.33;;;;;;;;;;5051124;28;20081;-81
2023/04/09 00:07:39;;;;;;;53.58;29.60;;;;;;;;;;5050830;28;20045;-81
2023/04/09 00:10:06;;;;;;;58.95;28.92;;;;;;;;;;5052342;28;20456;-81
2023/04/09 00:12:32;;;;;;;54.08;28.20;;;;;;;;;;5052263;28;20513;-81
2023/04/09 00:14:58;;;;;;;57.58;28.50;;;;;;;;;;5050962;28;20064;-81
2023/04/09 00:17:24;;;;;;;60.67;28.45;;;;;;;;;;5052141;28;20037;-81
2023/04/09 00:19:50;;;;;;;62.08;29.33;;;;;;;;;;5051627;28;20069;-81
2023/04/09 00:22:16;;;;;;;59.47;31.63;;;;;;;;;;5051051;28;20041;-81
2023/04/09 00:24:42;;;;;;;60.38;31.10;;;;;;;;;;5034044;28;20125;-81
2023/04/09 00:27:08;;;;;;;60.13;31.05;;;;;;;;;;5052204;28;20480;-81
2023/04/09 00:29:34;;;;;;;60.13;30.58;;;;;;;;;;5050970;28;20494;-81
2023/04/09 00:32:00;;;;;;;65.22;32.22;;;;;;;;;;5051789;28;20040;-81
2023/04/09 00:34:26;;;;;;;63.40;33.67;;;;;;;;;;5051790;28;20044;-81
2023/04/09 00:36:52;;;;;;;61.70;31.70;;;;;;;;;;5034065;28;20045;-81
2023/04/09 00:39:19;;;;;;;62.10;30.38;;;;;;;;;;5067740;28;20040;-81
2023/04/09 00:41:45;;;;;;;67.65;30.98;;;;;;;;;;5051539;28;20099;-81
2023/04/09 00:44:11;;;;;;;71.07;33.60;;;;;;;;;;5050326;28;20053;-81
2023/04/09 00:46:37;;;;;;;71.68;32.30;;;;;;;;;;5051808;28;20043;-81
2023/04/09 00:49:03;;;;;;;75.97;34.88;;;;;;;;;;5050285;28;20049;-81
2023/04/09 00:51:30;;;;;;;75.55;35.38;;;;;;;;;;5050611;28;20077;-81
2023/04/09 00:53:56;;;;;;;79.32;36.67;;;;;;;;;;5050290;28;20051;-81
2023/04/09 00:56:23;;;;;;;73.03;29.67;;;;;;;;;;5050993;28;20379;-81
2023/04/09 00:58:49;;;;;;;78.10;35.20;;;;;;;;;;5053341;28;20509;-81
2023/04/09 01:01:16;;;;;;;76.28;30.30;;;;;;;;;;5038228;28;20045;-81
2023/04/09 01:03:42;;;;;;;80.57;37.50;;;;;;;;;;5055752;28;20040;-81
2023/04/09 01:06:27;;;;;;;76.55;36.40;;;;;;;;;;5054760;28;20068;-81
2023/04/09 01:09:31;;;;;;;85.75;37.63;;;;;;;;;;5054088;28;20043;-81
2023/04/09 01:12:11;;;;;;;85.60;38.22;;;;;;;;;;4997269;28;20046;-81
2023/04/09 01:14:41;;;;;;;87.78;38.17;;;;;;;;;;4997819;28;20050;-81
2023/04/09 01:17:12;;;;;;;84.72;37.65;;;;;;;;;;5026655;28;20099;-81
2023/04/09 01:19:56;;;;;;;85.43;37.05;;;;;;;;;;5055778;28;20041;-81
2023/04/09 01:22:22;;;;;;;84.25;36.67;;;;;;;;;;5056275;28;20094;-81
2023/04/09 01:25:09;;;;;;;88.05;37.97;;;;;;;;;;5071315;28;20041;-81
2023/04/09 01:27:44;;;;;;;84.68;33.80;;;;;;;;;;5055490;28;20083;-81
2023/04/09 01:30:10;;;;;;;83.22;37.83;;;;;;;;;;5054239;28;20041;-81
2023/04/09 01:32:38;;;;;;;85.95;36.90;;;;;;;;;;5055270;28;20393;-81
2023/04/09 01:35:05;;;;;;;86.53;38.40;;;;;;;;;;5054814;28;20045;-81
2023/04/09 01:37:31;;;;;;;86.15;37.78;;;;;;;;;;5054139;28;20029;-81
2023/04/09 01:39:58;;;;;;;88.13;39.65;;;;;;;;;;5037200;28;20489;-81
2023/04/09 01:42:25;;;;;;;82.75;38.63;;;;;;;;;;5054002;28;20048;-81
2023/04/09 01:44:51;;;;;;;86.00;39.28;;;;;;;;;;5054477;28;20041;-81
2023/04/09 01:47:18;;;;;;;81.80;37.47;;;;;;;;;;5053694;28;20037;-81
2023/04/09 01:49:44;;;;;;;82.13;38.47;;;;;;;;;;5053498;28;20041;-81
2023/04/09 01:52:10;;;;;;;88.78;39.28;;;;;;;;;;5053536;28;20464;-81
2023/04/09 01:54:36;;;;;;;79.07;36.30;;;;;;;;;;5054812;28;20057;-81
2023/04/09 01:57:02;;;;;;;76.43;34.42;;;;;;;;;;5053372;28;20420;-81
2023/04/09 01:59:29;;;;;;;83.43;39.30;;;;;;;;;;5054816;28;20041;-81
2023/04/09 02:01:59;;;;;;;83.05;36.35;;;;;;;;;;5049954;28;20048;-81
2023/04/09 02:04:32;;;;;;;90.97;39.13;;;;;;;;;;5053094;28;20052;-81
2023/04/09 02:06:58;;;;;;;82.18;39.80;;;;;;;;;;5051940;28;20037;-81
2023/04/09 02:09:27;;;;;;;82.63;36.53;;;;;;;;;;5052020;28;20040;-81
2023/04/09 02:11:53;;;;;;;75.32;31.35;;;;;;;;;;5052862;28;20059;-81
2023/04/09 02:14:20;;;;;;;87.70;39.40;;;;;;;;;;5053100;28;20033;-81
2023/04/09 02:16:46;;;;;;;83.22;37.45;;;;;;;;;;5058295;28;20047;-81
2023/04/09 02:19:12;;;;;;;82.35;38.08;;;;;;;;;;5058815;28;20040;-81
2023/04/09 02:21:38;;;;;;;81.47;38.53;;;;;;;;;;5058702;28;20500;-81
2023/04/09 02:24:04;;;;;;;77.50;35.33;;;;;;;;;;5052819;28;20040;-81
2023/04/09 02:26:30;;;;;;;77.35;34.33;;;;;;;;;;5051276;28;20053;-81
2023/04/09 02:28:56;;;;;;;78.13;35.88;;;;;;;;;;5055241;28;20060;-81
2023/04/09 02:31:22;;;;;;;78.47;38.78;;;;;;;;;;5053578;28;20037;-81
2023/04/09 02:33:48;;;;;;;83.78;38.80;;;;;;;;;;5054044;28;20090;-81
2023/04/09 02:36:14;;;;;;;79.18;37.10;;;;;;;;;;5052309;28;20106;-81
2023/04/09 02:38:42;;;;;;;78.05;35.33;;;;;;;;;;5052962;28;20048;-81
2023/04/09 02:41:08;;;;;;;76.65;34.60;;;;;;;;;;5052678;28;20033;-81
2023/04/09 02:43:34;;;;;;;73.22;33.65;;;;;;;;;;5052640;28;20048;-81
2023/04/09 02:46:00;;;;;;;69.78;30.05;;;;;;;;;;5052186;28;20524;-81
2023/04/09 02:48:26;;;;;;;68.13;31.45;;;;;;;;;;5036199;28;20493;-81
2023/04/09 02:50:52;;;;;;;64.53;27.95;;;;;;;;;;5052624;28;20420;-81
2023/04/09 02:53:20;;;;;;;61.05;26.42;;;;;;;;;;5052119;28;20037;-81
2023/04/09 02:55:46;;;;;;;60.25;28.05;;;;;;;;;;5052640;28;20094;-81
2023/04/09 02:58:12;;;;;;;62.80;28.50;;;;;;;;;;5051972;28;20033;-81
2023/04/09 03:00:38;;;;;;;64.90;28.50;;;;;;;;;;5053639;28;20084;-80
2023/04/09 03:03:05;;;;;;;66.80;29.33;;;;;;;;;;5051628;28;20072;-81
2023/04/09 03:05:31;;;;;;;62.95;27.90;;;;;;;;;;5053545;28;20044;-81
2023/04/09 03:07:57;;;;;;;65.95;28.83;;;;;;;;;;5051635;28;20044;-81
2023/04/09 03:10:23;;;;;;;63.35;28.95;;;;;;;;;;5052161;28;20098;-81
2023/04/09 03:12:49;;;;;;;59.33;27.73;;;;;;;;;;5051882;28;20115;-81
2023/04/09 03:15:15;;;;;;;64.78;29.10;;;;;;;;;;5035132;28;20060;-81
2023/04/09 03:17:41;;;;;;;63.63;26.45;;;;;;;;;;5052054;28;20040;-81
2023/04/09 03:20:07;;;;;;;61.92;28.33;;;;;;;;;;5051429;28;20037;-81
2023/04/09 03:22:37;;;;;;;61.30;26.05;;;;;;;;;;5053388;28;20098;-81
2023/04/09 03:25:03;;;;;;;61.88;26.40;;;;;;;;;;5051677;28;20045;-81
2023/04/09 03:27:29;;;;;;;55.42;26.63;;;;;;;;;;5051859;28;20049;-80
2023/04/09 03:29:55;;;;;;;53.95;24.63;;;;;;;;;;5052900;28;20509;-81
2023/04/09 03:32:22;;;;;;;55.15;23.92;;;;;;;;;;5034927;28;20083;-81
2023/04/09 03:34:48;;;;;;;52.92;24.60;;;;;;;;;;5052835;28;20513;-80
2023/04/09 03:37:14;;;;;;;53.97;24.33;;;;;;;;;;5052578;28;20448;-81
2023/04/09 03:39:40;;;;;;;54.35;24.58;;;;;;;;;;5051631;28;20045;-80
2023/04/09 03:42:06;;;;;;;53.60;25.00;;;;;;;;;;5052300;28;20051;-80
2023/04/09 03:44:33;;;;;;;55.08;26.08;;;;;;;;;;5051511;28;20056;-81
2023/04/09 03:46:59;;;;;;;58.45;26.45;;;;;;;;;;5051482;28;20405;-81
2023/04/09 03:49:25;;;;;;;56.90;25.55;;;;;;;;;;5050955;28;20037;-81
2023/04/09 03:51:51;;;;;;;52.55;25.23;;;;;;;;;;5052793;28;20076;-81
2023/04/09 03:54:17;;;;;;;55.92;25.50;;;;;;;;;;5050945;28;20037;-81
2023/04/09 03:56:43;;;;;;;56.75;23.98;;;;;;;;;;5051272;28;20045;-81
2023/04/09 03:59:09;;;;;;;55.83;25.02;;;;;;;;;;5050693;28;20044;-81
2023/04/09 04:01:35;;;;;;;53.13;23.98;;;;;;;;;;5047743;28;20037;-81
2023/04/09 04:04:01;;;;;;;53.67;23.38;;;;;;;;;;5053933;28;20041;-81
2023/04/09 04:06:27;;;;;;;59.58;25.73;;;;;;;;;;5049271;28;20049;-81
2023/04/09 04:08:53;;;;;;;57.92;26.50;;;;;;;;;;5051062;28;20490;-81
2023/04/09 04:11:20;;;;;;;60.28;26.90;;;;;;;;;;5050473;28;20138;-81
2023/04/09 04:13:46;;;;;;;56.50;26.23;;;;;;;;;;5052284;28;20052;-81
2023/04/09 04:16:12;;;;;;;58.20;25.95;;;;;;;;;;5050667;28;20072;-81
2023/04/09 04:18:38;;;;;;;62.13;26.25;;;;;;;;;;5050867;28;20044;-81
2023/04/09 04:21:04;;;;;;;63.92;27.83;;;;;;;;;;5051143;28;20441;-81
2023/04/09 04:23:30;;;;;;;60.45;26.80;;;;;;;;;;5050920;28;20052;-81
2023/04/09 04:25:56;;;;;;;62.58;28.10;;;;;;;;;;5050792;28;20049;-81
2023/04/09 04:28:23;;;;;;;61.65;27.40;;;;;;;;;;5050545;28;20119;-81
2023/04/09 04:30:49;;;;;;;64.57;27.85;;;;;;;;;;5051102;28;20374;-81
2023/04/09 04:33:15;;;;;;;61.55;26.38;;;;;;;;;;5049816;28;20520;-81
2023/04/09 04:35:41;;;;;;;58.13;25.50;;;;;;;;;;5052070;28;20045;-81
2023/04/09 04:38:07;;;;;;;56.65;24.95;;;;;;;;;;5050607;28;20052;-81
2023/04/09 04:40:34;;;;;;;62.83;25.95;;;;;;;;;;5051713;28;20072;-81
2023/04/09 04:43:00;;;;;;;65.80;29.10;;;;;;;;;;5050814;28;20049;-81
2023/04/09 04:45:26;;;;;;;61.13;27.60;;;;;;;;;;5051686;28;20135;-81
2023/04/09 04:47:52;;;;;;;72.20;30.70;;;;;;;;;;5034210;28;20049;-81
2023/04/09 04:50:18;;;;;;;63.45;29.65;;;;;;;;;;5050217;28;20044;-81
2023/04/09 04:52:44;;;;;;;64.53;30.48;;;;;;;;;;5050602;28;20458;-81
2023/04/09 04:55:10;;;;;;;63.70;29.10;;;;;;;;;;5051676;28;20045;-81
2023/04/09 04:57:36;;;;;;;71.88;30.73;;;;;;;;;;5051676;28;20037;-81
2023/04/09 05:00:03;;;;;;;65.40;29.88;;;;;;;;;;5050813;28;20048;-81
2023/04/09 05:02:29;;;;;;;69.03;29.90;;;;;;;;;;5049329;28;20116;-81
2023/04/09 05:04:55;;;;;;;70.93;31.83;;;;;;;;;;5050615;28;20508;-81
2023/04/09 05:07:21;;;;;;;64.82;30.17;;;;;;;;;;5051322;28;20044;-81
2023/04/09 05:09:47;;;;;;;66.60;30.02;;;;;;;;;;5050947;28;20481;-81
2023/04/09 05:12:14;;;;;;;68.38;29.77;;;;;;;;;;5051158;28;20044;-81
2023/04/09 05:14:40;;;;;;;63.88;29.75;;;;;;;;;;5050532;28;20041;-81
2023/04/09 05:17:06;;;;;;;55.55;24.88;;;;;;;;;;5050366;28;20045;-81
2023/04/09 05:19:32;;;;;;;64.55;28.38;;;;;;;;;;5050058;28;20163;-81
2023/04/09 05:21:58;;;;;;;65.38;28.73;;;;;;;;;;5051353;28;20048;-81
2023/04/09 05:24:25;;;;;;;62.08;29.13;;;;;;;;;;5033647;28;20071;-81
2023/04/09 05:26:51;;;;;;;64.20;29.40;;;;;;;;;;5051707;28;20056;-81
2023/04/09 05:29:17;;;;;;;58.13;26.85;;;;;;;;;;5050270;28;20064;-81
2023/04/09 05:31:43;;;;;;;65.55;28.85;;;;;;;;;;5051592;28;20405;-81
2023/04/09 05:34:09;;;;;;;56.28;27.52;;;;;;;;;;5058405;28;20041;-81
2023/04/09 05:36:35;;;;;;;55.97;27.33;;;;;;;;;;5089078;28;20037;-81
2023/04/09 05:39:01;;;;;;;59.63;27.67;;;;;;;;;;5050300;28;20041;-81
2023/04/09 05:41:27;;;;;;;60.97;27.23;;;;;;;;;;5049825;28;20049;-81
2023/04/09 05:43:53;;;;;;;58.88;28.10;;;;;;;;;;5083583;28;20053;-81
2023/04/09 05:46:20;;;;;;;56.97;27.00;;;;;;;;;;5036640;28;20053;-81
2023/04/09 05:48:46;;;;;;;54.72;25.67;;;;;;;;;;5053997;28;20120;-81
2023/04/09 05:51:14;;;;;;;58.60;27.27;;;;;;;;;;5037406;28;20084;-81
2023/04/09 05:53:40;;;;;;;55.72;25.60;;;;;;;;;;5053720;28;20116;-81
2023/04/09 05:56:14;;;;;;;57.88;26.75;;;;;;;;;;5037426;28;20052;-81
2023/04/09 05:58:40;;;;;;;57.17;27.38;;;;;;;;;;5053494;28;20048;-81
2023/04/09 06:01:06;;;;;;;58.08;26.55;;;;;;;;;;5036437;28;20108;-81
2023/04/09 06:03:32;;;;;;;52.72;25.90;;;;;;;;;;5053228;28;20049;-81
2023/04/09 06:05:58;;;;;;;53.33;25.98;;;;;;;;;;5053255;28;20105;-81
2023/04/09 06:08:24;;;;;;;58.70;27.77;;;;;;;;;;5053170;28;20049;-81
2023/04/09 06:10:50;;;;;;;57.00;28.10;;;;;;;;;;5037038;28;20505;-81
2023/04/09 06:13:16;;;;;;;58.88;26.70;;;;;;;;;;5053263;28;20076;-81
2023/04/09 06:15:42;;;;;;;56.55;27.42;;;;;;;;;;5054696;28;20033;-81
2023/04/09 06:18:08;;;;;;;63.20;29.40;;;;;;;;;;5036899;28;20029;-81
2023/04/09 06:20:34;;;;;;;58.20;28.00;;;;;;;;;;5052503;28;20049;-81
2023/04/09 06:23:00;;;;;;;58.10;28.08;;;;;;;;;;5053447;28;20041;-81
2023/04/09 06:25:26;;;;;;;55.63;26.92;;;;;;;;;;5054330;28;20051;-81
2023/04/09 06:27:53;;;;;;;55.42;26.90;;;;;;;;;;5053097;28;20041;-81
2023/04/09 06:30:19;;;;;;;57.10;26.58;;;;;;;;;;5054657;28;20520;-81
2023/04/09 06:32:46;;;;;;;52.28;27.58;;;;;;;;;;5054246;28;20041;-80
2023/04/09 06:35:12;;;;;;;56.13;27.75;;;;;;;;;;5052981;28;20094;-81
2023/04/09 06:37:38;;;;;;;54.90;27.33;;;;;;;;;;5054142;28;20072;-81
2023/04/09 06:40:05;;;;;;;56.45;26.75;;;;;;;;;;5054343;28;20055;-81
2023/04/09 06:42:31;;;;;;;54.97;27.27;;;;;;;;;;5052461;28;20090;-81
2023/04/09 06:44:57;;;;;;;51.90;26.63;;;;;;;;;;5052681;28;20048;-81
2023/04/09 06:47:23;;;;;;;52.67;25.48;;;;;;;;;;5052513;28;20032;-81
2023/04/09 06:49:49;;;;;;;50.10;25.27;;;;;;;;;;5052653;28;20037;-81
2023/04/09 06:52:15;;;;;;;49.67;25.35;;;;;;;;;;5053794;28;20037;-82
2023/04/09 06:54:41;;;;;;;48.90;23.90;;;;;;;;;;5052285;28;20041;-81
2023/04/09 06:57:08;;;;;;;48.03;23.60;;;;;;;;;;5052018;28;20041;-81
2023/04/09 06:59:35;;;;;;;48.45;24.17;;;;;;;;;;5035956;28;20486;-81
2023/04/09 07:02:01;;;;;;;50.10;24.55;;;;;;;;;;5051697;28;20045;-80
2023/04/09 07:04:27;;;;;;;48.40;25.08;;;;;;;;;;5035634;28;20512;-81
2023/04/09 07:06:54;;;;;;;45.30;24.42;;;;;;;;;;5052568;28;20366;-81
2023/04/09 07:09:20;;;;;;;56.35;26.45;;;;;;;;;;5053546;28;20107;-81
2023/04/09 07:11:46;;;;;;;55.58;26.95;;;;;;;;;;5051998;28;20045;-81
2023/04/09 07:14:12;;;;;;;53.75;26.42;;;;;;;;;;5051957;28;20041;-81
2023/04/09 07:16:38;;;;;;;53.95;26.92;;;;;;;;;;5051960;28;20165;-81
2023/04/09 07:19:06;;;;;;;56.03;26.88;;;;;;;;;;5053142;28;20040;-81
2023/04/09 07:21:32;;;;;;;52.28;25.15;;;;;;;;;;5053210;28;20048;-81
2023/04/09 07:23:58;;;;;;;47.78;24.15;;;;;;;;;;5053625;28;20622;-81
2023/04/09 07:26:24;;;;;;;43.30;23.30;;;;;;;;;;5051918;28;20178;-81
2023/04/09 07:28:50;;;;;;;48.70;24.00;;;;;;;;;;5051556;28;20048;-80
2023/04/09 07:31:16;;;;;;;43.75;23.10;;;;;;;;;;5052968;28;20532;-81
2023/04/09 07:33:42;;;;;;;39.30;21.73;;;;;;;;;;5052842;28;20381;-82
2023/04/09 07:36:08;;;;;;;44.58;23.30;;;;;;;;;;5052085;28;20048;-81
2023/04/09 07:38:34;;;;;;;45.60;24.02;;;;;;;;;;5051442;28;20509;-81
2023/04/09 07:41:00;;;;;;;44.00;23.67;;;;;;;;;;5051684;28;20029;-81
2023/04/09 07:43:26;;;;;;;43.67;22.63;;;;;;;;;;5052696;28;20063;-81
2023/04/09 07:45:53;;;;;;;45.38;23.85;;;;;;;;;;5051391;28;20148;-81
2023/04/09 07:48:19;;;;;;;39.25;21.00;;;;;;;;;;5051587;28;20076;-81
2023/04/09 07:50:46;;;;;;;41.80;22.35;;;;;;;;;;5034577;28;20095;-81
2023/04/09 07:53:12;;;;;;;44.83;22.75;;;;;;;;;;5051467;28;20120;-81
2023/04/09 07:55:38;;;;;;;42.88;23.02;;;;;;;;;;5051313;28;20041;-81
2023/04/09 07:58:04;;;;;;;40.85;20.90;;;;;;;;;;5052700;28;20135;-82
2023/04/09 08:00:30;;;;;;;39.85;20.38;;;;;;;;;;5051438;28;20101;-81
2023/04/09 08:02:56;;;;;;;40.17;21.98;;;;;;;;;;5052725;28;20047;-81
2023/04/09 08:05:23;;;;;;;41.70;22.45;;;;;;;;;;5052777;28;20559;-81
2023/04/09 08:07:51;;;;;;;40.28;20.33;;;;;;;;;;5049988;28;20095;-81
2023/04/09 08:10:18;;;;;;;43.10;21.80;;;;;;;;;;5051349;28;20077;-81
2023/04/09 08:12:44;;;;;;;39.97;21.52;;;;;;;;;;5050524;28;20041;-81
2023/04/09 08:15:11;;;;;;;41.25;21.77;;;;;;;;;;5052604;28;20084;-81
2023/04/09 08:17:37;;;;;;;37.47;20.08;;;;;;;;;;5034251;28;20033;-81
2023/04/09 08:20:04;;;;;;;36.22;19.92;;;;;;;;;;5052336;28;20079;-81
2023/04/09 08:22:30;;;;;;;40.28;21.90;;;;;;;;;;5052302;28;20045;-81
2023/04/09 08:24:59;;;;;;;40.67;21.15;;;;;;;;;;5050925;28;20562;-81
2023/04/09 08:27:26;;;;;;;40.03;21.23;;;;;;;;;;5052583;28;20041;-81
2023/04/09 08:29:52;;;;;;;37.58;20.60;;;;;;;;;;5050594;28;20033;-81
2023/04/09 08:32:18;;;;;;;37.35;20.98;;;;;;;;;;5051053;28;20040;-81
2023/04/09 08:34:44;;;;;;;38.67;21.48;;;;;;;;;;5050489;28;20045;-81
2023/04/09 08:37:10;;;;;;;35.75;20.38;;;;;;;;;;5052455;28;20033;-81
2023/04/09 08:39:36;;;;;;;37.45;20.73;;;;;;;;;;5051706;28;20045;-81
2023/04/09 08:42:06;;;;;;;39.03;20.83;;;;;;;;;;5034295;28;20032;-81
2023/04/09 08:44:32;;;;;;;43.53;22.90;;;;;;;;;;5034828;28;20180;-82
2023/04/09 08:46:59;;;;;;;40.80;22.58;;;;;;;;;;5053075;28;20049;-81
2023/04/09 08:49:25;;;;;;;43.33;22.63;;;;;;;;;;5051763;28;20045;-81
2023/04/09 08:51:51;;;;;;;41.63;21.83;;;;;;;;;;5052642;28;20044;-81
2023/04/09 08:54:18;;;;;;;39.00;21.67;;;;;;;;;;5051977;28;20067;-81
2023/04/09 08:56:48;;;;;;;40.47;21.45;;;;;;;;;;5034373;28;20044;-82
2023/04/09 08:59:17;;;;;;;38.53;19.42;;;;;;;;;;5051971;28;20029;-82
2023/04/09 09:01:46;;;;;;;37.72;20.17;;;;;;;;;;5051344;28;20076;-81
2023/04/09 09:04:13;;;;;;;38.97;21.13;;;;;;;;;;5051304;28;20517;-81
2023/04/09 09:06:40;;;;;;;38.40;20.88;;;;;;;;;;5050693;28;20045;-81
2023/04/09 09:09:13;;;;;;;36.85;20.27;;;;;;;;;;5050866;28;20048;-81
2023/04/09 09:11:40;;;;;;;40.40;22.77;;;;;;;;;;5051681;28;20121;-82
2023/04/09 09:14:07;;;;;;;41.80;22.30;;;;;;;;;;5051721;28;20045;-82
2023/04/09 09:16:39;;;;;;;38.35;21.67;;;;;;;;;;5050900;28;20048;-82
2023/04/09 09:19:06;;;;;;;39.67;22.48;;;;;;;;;;5052092;28;20041;-82
2023/04/09 09:21:32;;;;;;;38.10;22.10;;;;;;;;;;5055606;28;20045;-82
2023/04/09 09:23:58;;;;;;;41.53;22.58;;;;;;;;;;5053905;28;20051;-82
2023/04/09 09:26:26;;;;;;;38.42;21.13;;;;;;;;;;5054510;28;20051;-82
2023/04/09 09:28:52;;;;;;;41.10;21.75;;;;;;;;;;5037233;28;20102;-82
2023/04/09 09:31:19;;;;;;;38.05;21.35;;;;;;;;;;5055421;28;20056;-82
2023/04/09 09:33:46;;;;;;;33.70;20.42;;;;;;;;;;5040823;28;20037;-82
2023/04/09 09:36:12;;;;;;;35.72;20.35;;;;;;;;;;5054394;28;20048;-82
2023/04/09 09:38:52;;;;;;;37.20;21.45;;;;;;;;;;5055158;28;20072;-82
2023/04/09 09:41:18;;;;;;;30.40;19.02;;;;;;;;;;5054049;28;20041;-82
2023/04/09 09:43:45;;;;;;;34.10;20.45;;;;;;;;;;5053449;28;20053;-83
2023/04/09 09:46:11;;;;;;;31.60;20.63;;;;;;;;;;5054306;28;20607;-83
2023/04/09 09:48:38;;;;;;;32.42;20.75;;;;;;;;;;5053732;28;20051;-83
2023/04/09 09:51:11;;;;;;;31.48;21.00;;;;;;;;;;5053170;28;20103;-83
2023/04/09 09:53:38;;;;;;;31.58;20.25;;;;;;;;;;5055192;28;20052;-83
2023/04/09 09:56:11;;;;;;;32.10;22.17;;;;;;;;;;5054305;28;20102;-84
2023/04/09 09:58:40;;;;;;;29.40;20.70;;;;;;;;;;5053535;28;20045;-83
2023/04/09 10:01:09;;;;;;;30.52;20.60;;;;;;;;;;5050503;28;20449;-83
2023/04/09 10:03:37;;;;;;;29.58;20.77;;;;;;;;;;5053517;28;20098;-83
2023/04/09 10:06:03;;;;;;;31.20;21.45;;;;;;;;;;5053190;28;20498;-83
2023/04/09 10:08:32;;;;;;;29.95;20.00;;;;;;;;;;5054998;28;20041;-83
2023/04/09 10:10:58;;;;;;;28.55;19.08;;;;;;;;;;5054188;28;20156;-83
2023/04/09 10:13:35;;;;;;;25.90;18.73;;;;;;;;;;5053140;28;20033;-83
2023/04/09 10:16:01;;;;;;;28.35;20.23;;;;;;;;;;5054176;28;20134;-83
2023/04/09 10:18:28;;;;;;;28.05;20.02;;;;;;;;;;5054505;28;20040;-84
2023/04/09 10:20:57;;;;;;;26.63;19.10;;;;;;;;;;5053575;28;20084;-83
2023/04/09 10:23:38;;;;;;;24.67;18.83;;;;;;;;;;5053269;28;20099;-83
2023/04/09 10:26:04;;;;;;;26.23;19.25;;;;;;;;;;5052695;28;20139;-83
2023/04/09 10:28:31;;;;;;;24.08;18.92;;;;;;;;;;5054603;28;20033;-84
2023/04/09 10:30:57;;;;;;;27.58;20.25;;;;;;;;;;5052042;28;20053;-84
2023/04/09 10:33:27;;;;;;;25.27;19.42;;;;;;;;;;5054899;28;20040;-82
2023/04/09 10:35:54;;;;;;;25.33;18.70;;;;;;;;;;5053822;28;20044;-84
2023/04/09 10:38:34;;;;;;;22.15;17.67;;;;;;;;;;5036243;28;20043;-84
2023/04/09 10:41:14;;;;;;;25.83;18.98;;;;;;;;;;5052341;28;20047;-84
2023/04/09 10:43:41;;;;;;;25.95;19.02;;;;;;;;;;5053677;28;20418;-83
2023/04/09 10:46:07;;;;;;;25.08;18.50;;;;;;;;;;5051812;28;20120;-83
2023/04/09 10:48:34;;;;;;;25.83;18.00;;;;;;;;;;5053534;28;20119;-84
2023/04/09 10:51:05;;;;;;;25.02;18.38;;;;;;;;;;5053499;28;20105;-83
2023/04/09 10:53:31;;;;;;;26.58;18.67;;;;;;;;;;5054006;28;20041;-83
2023/04/09 10:55:57;;;;;;;26.48;18.60;;;;;;;;;;5053230;28;20041;-83
2023/04/09 10:58:24;;;;;;;26.58;17.85;;;;;;;;;;5053734;28;20064;-83
2023/04/09 11:00:51;;;;;;;24.85;17.83;;;;;;;;;;5052966;28;20037;-83
2023/04/09 11:03:23;;;;;;;24.35;17.83;;;;;;;;;;5035699;28;20516;-83
2023/04/09 11:05:52;;;;;;;24.38;17.50;;;;;;;;;;5052483;28;20750;-83
2023/04/09 11:08:18;;;;;;;25.30;17.85;;;;;;;;;;5035541;28;20079;-83
2023/04/09 11:10:46;;;;;;;25.05;17.65;;;;;;;;;;5052457;28;20064;-83
2023/04/09 11:13:16;;;;;;;26.42;18.48;;;;;;;;;;5051619;28;20079;-83
2023/04/09 11:15:43;;;;;;;25.55;16.70;;;;;;;;;;5052040;28;20056;-83
2023/04/09 11:18:13;;;;;;;24.88;17.00;;;;;;;;;;5051923;28;20037;-83
2023/04/09 11:20:39;;;;;;;24.80;17.08;;;;;;;;;;5053418;28;20033;-83
2023/04/09 11:23:06;;;;;;;21.48;16.52;;;;;;;;;;5052725;28;20044;-83
2023/04/09 11:25:33;;;;;;;22.48;16.23;;;;;;;;;;5053885;28;20405;-83
2023/04/09 11:28:02;;;;;;;22.60;17.20;;;;;;;;;;5051732;28;20052;-83
2023/04/09 11:30:28;;;;;;;24.70;16.77;;;;;;;;;;5053373;28;20044;-82
2023/04/09 11:32:54;;;;;;;23.25;15.65;;;;;;;;;;5053429;28;20120;-83
2023/04/09 11:35:21;;;;;;;23.55;15.98;;;;;;;;;;5053012;28;20047;-83
2023/04/09 11:37:48;;;;;;;22.27;15.75;;;;;;;;;;5052226;28;20041;-83
2023/04/09 11:40:17;;;;;;;23.42;15.38;;;;;;;;;;5035615;28;20040;-83
2023/04/09 11:42:43;;;;;;;23.92;16.17;;;;;;;;;;5051857;28;20079;-83
2023/04/09 11:45:10;;;;;;;26.75;17.45;;;;;;;;;;5053980;28;20495;-82
2023/04/09 11:47:38;;;;;;;32.90;20.73;;;;;;;;;;5052205;28;20048;-83
2023/04/09 11:50:06;;;;;;;23.13;16.60;;;;;;;;;;5051881;28;20080;-83
2023/04/09 11:52:34;;;;;;;26.90;17.63;;;;;;;;;;5051858;28;20065;-83
2023/04/09 11:55:01;;;;;;;23.73;17.10;;;;;;;;;;5051861;28;20055;-83
2023/04/09 11:57:41;;;;;;;25.20;18.02;;;;;;;;;;5051886;28;20045;-83
2023/04/09 12:00:08;;;;;;;26.30;17.52;;;;;;;;;;5052833;28;20494;-82
2023/04/09 12:02:36;;;;;;;24.95;17.77;;;;;;;;;;5051289;28;20116;-82
2023/04/09 12:05:06;;;;;;;26.10;17.10;;;;;;;;;;5051390;28;20386;-83
2023/04/09 12:07:32;;;;;;;25.13;17.05;;;;;;;;;;5051211;28;20040;-82
2023/04/09 12:10:03;;;;;;;23.25;16.98;;;;;;;;;;5052711;28;20044;-82
2023/04/09 12:12:30;;;;;;;27.73;17.33;;;;;;;;;;5052374;28;20080;-82
2023/04/09 12:14:58;;;;;;;28.77;18.45;;;;;;;;;;5034384;28;20041;-83
2023/04/09 12:17:24;;;;;;;25.73;17.90;;;;;;;;;;5051971;28;20060;-82
2023/04/09 12:19:50;;;;;;;23.85;16.15;;;;;;;;;;5052672;28;20498;-82
2023/04/09 12:22:16;;;;;;;24.13;17.00;;;;;;;;;;5034488;28;20040;-83
2023/04/09 12:24:42;;;;;;;24.58;16.77;;;;;;;;;;5052207;28;20041;-82
2023/04/09 12:27:09;;;;;;;23.80;16.48;;;;;;;;;;5034371;28;20134;-83
2023/04/09 12:29:35;;;;;;;23.83;16.67;;;;;;;;;;5052061;28;20037;-82
2023/04/09 12:32:01;;;;;;;25.02;16.95;;;;;;;;;;5050892;28;20045;-82
2023/04/09 12:34:27;;;;;;;24.70;17.83;;;;;;;;;;5050311;28;20041;-82
2023/04/09 12:36:54;;;;;;;24.65;16.55;;;;;;;;;;5067861;28;20041;-82
2023/04/09 12:39:20;;;;;;;23.35;15.90;;;;;;;;;;5034266;28;20504;-82
2023/04/09 12:41:46;;;;;;;23.83;16.67;;;;;;;;;;5052075;28;20165;-82
2023/04/09 12:44:12;;;;;;;22.65;16.30;;;;;;;;;;5049991;28;20106;-83
2023/04/09 12:46:38;;;;;;;20.98;15.23;;;;;;;;;;5034334;28;20052;-83
2023/04/09 12:49:05;;;;;;;23.65;16.38;;;;;;;;;;5052066;28;20036;-82
2023/04/09 12:51:31;;;;;;;25.33;15.75;;;;;;;;;;5051683;28;20278;-82
2023/04/09 12:53:57;;;;;;;22.92;14.82;;;;;;;;;;5053329;28;20044;-83
2023/04/09 12:56:23;;;;;;;21.75;15.70;;;;;;;;;;5055811;28;20401;-83
2023/04/09 12:58:50;;;;;;;22.73;15.55;;;;;;;;;;5055889;28;20087;-83
2023/04/09 13:01:16;;;;;;;22.35;15.40;;;;;;;;;;5053934;28;20393;-82
2023/04/09 13:03:42;;;;;;;22.58;15.57;;;;;;;;;;5055020;28;20088;-82
2023/04/09 13:06:08;;;;;;;20.13;14.20;;;;;;;;;;5054264;28;20134;-82
2023/04/09 13:08:35;;;;;;;22.08;14.68;;;;;;;;;;5056023;28;20052;-83
2023/04/09 13:11:01;;;;;;;19.60;13.23;;;;;;;;;;5054648;28;20077;-83
2023/04/09 13:13:27;;;;;;;19.23;11.90;;;;;;;;;;5053986;28;20053;-83
2023/04/09 13:15:53;;;;;;;21.95;14.65;;;;;;;;;;5055491;28;20047;-83
2023/04/09 13:18:19;;;;;;;19.67;13.32;;;;;;;;;;5055385;28;20112;-83
2023/04/09 13:20:45;;;;;;;20.60;13.80;;;;;;;;;;5037925;28;20442;-83
2023/04/09 13:23:11;;;;;;;21.20;13.40;;;;;;;;;;5023278;28;20037;-82
2023/04/09 13:25:37;;;;;;;19.85;13.18;;;;;;;;;;5054307;28;20044;-83
2023/04/09 13:28:04;;;;;;;19.13;12.70;;;;;;;;;;5054223;28;20509;-83
2023/04/09 13:30:30;;;;;;;19.20;13.15;;;;;;;;;;5037078;28;20163;-83
2023/04/09 13:32:56;;;;;;;19.60;13.77;;;;;;;;;;5054252;28;20040;-83
2023/04/09 13:35:22;;;;;;;20.70;13.75;;;;;;;;;;5055114;28;20409;-82
2023/04/09 13:37:48;;;;;;;19.75;12.57;;;;;;;;;;5054147;28;20116;-82
2023/04/09 13:40:15;;;;;;;21.02;13.95;;;;;;;;;;5053505;28;20041;-82
2023/04/09 13:42:41;;;;;;;20.42;13.68;;;;;;;;;;5054107;28;20052;-83
2023/04/09 13:45:07;;;;;;;22.05;13.93;;;;;;;;;;5053691;28;20049;-82
2023/04/09 13:47:33;;;;;;;20.92;13.38;;;;;;;;;;5054934;28;20053;-82
2023/04/09 13:49:59;;;;;;;19.77;13.57;;;;;;;;;;5055390;28;20037;-82
2023/04/09 13:52:26;;;;;;;19.92;13.45;;;;;;;;;;5054735;28;20033;-82
2023/04/09 13:54:52;;;;;;;19.10;13.15;;;;;;;;;;5053757;28;20112;-82
2023/04/09 13:57:18;;;;;;;22.10;14.05;;;;;;;;;;5036551;28;20055;-82
2023/04/09 13:59:45;;;;;;;19.00;13.15;;;;;;;;;;5055156;28;20112;-82
2023/04/09 14:02:11;;;;;;;19.55;13.18;;;;;;;;;;5052804;28;20044;-83
2023/04/09 14:04:37;;;;;;;22.63;14.30;;;;;;;;;;5053041;28;20444;-83
2023/04/09 14:07:03;;;;;;;19.90;13.32;;;;;;;;;;5052861;28;20059;-83
2023/04/09 14:09:29;;;;;;;20.20;13.60;;;;;;;;;;5053109;28;20065;-83
2023/04/09 14:11:56;;;;;;;20.23;13.85;;;;;;;;;;5054572;28;20563;-82
2023/04/09 14:14:22;;;;;;;18.98;12.35;;;;;;;;;;5052840;28;20039;-82